createdAt,value
2022-11-29T00:03:39.210Z,6.38
2022-11-29T00:08:42.860Z,6.38
2022-11-29T00:13:47.386Z,6.37
2022-11-29T00:18:50.391Z,6.39
2022-11-29T00:23:53.499Z,6.37
2022-11-29T00:28:57.784Z,6.28
2022-11-29T00:34:03.136Z,6.23
2022-11-29T00:39:06.739Z,6.17
2022-11-29T00:44:16.785Z,6.01
2022-11-29T00:49:22.723Z,6.03
2022-11-29T00:54:25.883Z,6.04
2022-11-29T00:59:31.484Z,6.06
2022-11-29T01:04:34.619Z,5.97
2022-11-29T01:09:37.615Z,5.83
2022-11-29T01:14:43.196Z,5.72
2022-11-29T01:19:50.626Z,5.59
2022-11-29T01:24:54.410Z,5.55
2022-11-29T01:30:01.351Z,5.45
2022-11-29T01:35:04.648Z,5.38
2022-11-29T01:40:08.940Z,5.35
2022-11-29T01:45:25.661Z,5.35
2022-11-29T01:50:28.853Z,5.41
2022-11-29T01:55:32.857Z,5.45
2022-11-29T02:00:37.709Z,5.50
2022-11-29T02:05:44.127Z,5.52
2022-11-29T02:11:00.340Z,5.57
2022-11-29T02:16:14.284Z,5.63
2022-11-29T02:21:30.365Z,5.70
2022-11-29T02:27:00.139Z,5.83
2022-11-29T02:32:51.880Z,5.92
2022-11-29T02:38:21.881Z,5.97
2022-11-29T02:43:48.056Z,6.04
2022-11-29T02:49:03.951Z,6.08
2022-11-29T02:54:17.528Z,6.13
2022-11-29T02:59:35.463Z,6.19
2022-11-29T03:04:44.869Z,6.25
2022-11-29T03:09:57.937Z,6.26
2022-11-29T03:15:14.374Z,6.30
2022-11-29T03:20:30.224Z,6.34
2022-11-29T03:25:40.309Z,6.37
2022-11-29T03:30:49.767Z,6.39
2022-11-29T03:36:01.605Z,6.35
2022-11-29T03:41:15.268Z,6.36
2022-11-29T03:46:25.204Z,6.42
2022-11-29T03:51:40.064Z,6.43
2022-11-29T03:56:45.136Z,6.47
2022-11-29T04:02:15.506Z,6.49
2022-11-29T04:07:36.157Z,6.48
2022-11-29T04:13:19.675Z,6.43
2022-11-29T04:18:56.727Z,6.44
2022-11-29T04:24:30.935Z,6.50
2022-11-29T04:30:05.480Z,6.53
2022-11-29T04:35:30.827Z,6.54
2022-11-29T04:40:54.114Z,6.55
2022-11-29T04:46:37.715Z,6.62
2022-11-29T04:52:04.649Z,6.62
2022-11-29T04:57:12.777Z,6.67
2022-11-29T05:02:38.211Z,6.72
2022-11-29T05:07:49.330Z,6.73
2022-11-29T05:13:01.908Z,6.74
2022-11-29T05:18:16.866Z,6.79
2022-11-29T05:23:33.479Z,6.84
2022-11-29T05:28:48.621Z,6.85
2022-11-29T05:34:22.793Z,6.88
2022-11-29T05:39:44.391Z,6.91
2022-11-29T05:44:57.098Z,6.80
2022-11-29T05:50:12.493Z,6.85
2022-11-29T05:55:31.893Z,6.92
2022-11-29T06:00:49.027Z,6.94
2022-11-29T06:05:59.250Z,6.95
2022-11-29T06:11:06.647Z,6.94
2022-11-29T06:16:30.317Z,6.93
2022-11-29T06:21:45.161Z,6.94
2022-11-29T06:27:05.276Z,6.93
2022-11-29T06:32:25.710Z,6.92
2022-11-29T06:37:39.300Z,6.90
2022-11-29T06:42:42.233Z,6.93
2022-11-29T06:47:52.257Z,6.90
2022-11-29T06:53:03.595Z,6.93
2022-11-29T06:58:15.356Z,6.90
2022-11-29T07:03:34.719Z,6.92
2022-11-29T07:08:41.538Z,6.95
2022-11-29T07:13:45.154Z,6.95
2022-11-29T07:18:54.813Z,6.97
2022-11-29T07:24:09.383Z,7.00
2022-11-29T07:29:32.440Z,6.98
2022-11-29T07:34:47.216Z,6.97
2022-11-29T07:40:00.731Z,6.99
2022-11-29T07:45:13.941Z,7.02
2022-11-29T07:50:17.525Z,7.10
2022-11-29T07:55:23.928Z,7.14
2022-11-29T08:00:26.933Z,7.22
2022-11-29T08:05:33.087Z,7.27
2022-11-29T08:10:37.494Z,7.34
2022-11-29T08:15:45.572Z,7.40
2022-11-29T08:20:48.598Z,7.50
2022-11-29T08:26:00.338Z,7.63
2022-11-29T08:31:04.115Z,7.75
2022-11-29T08:36:07.709Z,7.83
2022-11-29T08:41:14.410Z,7.90
2022-11-29T08:46:18.912Z,7.99
2022-11-29T08:51:22.095Z,8.09
2022-11-29T08:57:16.387Z,8.26
2022-11-29T09:01:49.480Z,8.40
2022-11-29T09:06:52.579Z,8.50
2022-11-29T09:11:57.288Z,8.48
2022-11-29T09:17:00.315Z,8.53
2022-11-29T09:22:03.570Z,8.66
2022-11-29T09:27:08.093Z,8.70
2022-11-29T09:32:11.223Z,8.81
2022-11-29T09:37:14.522Z,9.02
2022-11-29T09:42:39.305Z,9.19
2022-11-29T09:48:20.448Z,9.08
2022-11-29T09:53:39.987Z,8.98
2022-11-29T09:58:49.351Z,9.11
2022-11-29T10:03:55.997Z,9.06
2022-11-29T10:09:04.042Z,9.27
2022-11-29T10:14:15.086Z,9.42
2022-11-29T10:19:24.700Z,9.57
2022-11-29T10:24:31.830Z,9.48
2022-11-29T10:29:36.155Z,9.38
2022-11-29T10:34:39.969Z,9.40
2022-11-29T10:39:47.474Z,9.43
2022-11-29T10:44:52.804Z,9.44
2022-11-29T10:49:56.933Z,9.45
2022-11-29T10:55:03.623Z,9.58
2022-11-29T11:00:10.988Z,9.70
2022-11-29T11:05:18.852Z,9.80
2022-11-29T11:10:27.301Z,9.96
2022-11-29T11:15:33.473Z,10.06
2022-11-29T11:20:41.101Z,10.11
2022-11-29T11:25:44.135Z,10.09
2022-11-29T11:30:54.214Z,9.81
2022-11-29T11:36:09.719Z,9.89
2022-11-29T11:41:23.346Z,10.02
2022-11-29T11:46:48.037Z,10.14
2022-11-29T11:51:51.884Z,10.25
2022-11-29T11:56:54.952Z,10.19
2022-11-29T12:02:00.939Z,10.26
2022-11-29T12:07:10.394Z,10.27
2022-11-29T12:12:17.076Z,10.25
2022-11-29T12:17:29.192Z,10.23
2022-11-29T12:22:42.596Z,10.21
2022-11-29T12:27:50.616Z,10.27
2022-11-29T12:33:17.156Z,10.31
2022-11-29T12:38:32.865Z,10.30
2022-11-29T12:43:51.257Z,10.37
2022-11-29T12:49:07.825Z,10.16
2022-11-29T12:54:30.787Z,10.36
2022-11-29T12:59:49.958Z,10.64
2022-11-29T13:05:02.300Z,10.59
2022-11-29T13:10:22.559Z,10.33
2022-11-29T13:15:42.304Z,10.37
2022-11-29T13:20:50.721Z,10.57
2022-11-29T13:25:55.522Z,10.84
2022-11-29T13:31:02.779Z,10.91
2022-11-29T13:36:17.133Z,10.68
2022-11-29T13:41:31.401Z,10.40
2022-11-29T13:46:41.835Z,10.31
2022-11-29T13:51:47.001Z,10.31
2022-11-29T13:56:50.010Z,10.31
2022-11-29T14:01:54.621Z,10.33
2022-11-29T14:07:12.264Z,10.27
2022-11-29T14:12:27.491Z,10.29
2022-11-29T14:17:37.106Z,10.32
2022-11-29T14:23:20.228Z,10.37
2022-11-29T14:28:31.024Z,10.31
2022-11-29T14:33:57.857Z,10.10
2022-11-29T14:39:16.549Z,9.81
2022-11-29T14:44:24.176Z,9.73
2022-11-29T14:49:31.971Z,9.53
2022-11-29T14:54:38.356Z,9.43
2022-11-29T14:59:51.744Z,9.37
2022-11-29T15:04:57.639Z,9.08
2022-11-29T15:10:05.460Z,8.97
2022-11-29T15:15:24.646Z,9.00
2022-11-29T15:20:51.078Z,8.92
2022-11-29T15:26:01.254Z,8.88
2022-11-29T15:31:07.798Z,8.82
2022-11-29T15:36:17.467Z,8.69
2022-11-29T15:41:27.320Z,8.57
2022-11-29T15:46:32.146Z,8.50
2022-11-29T15:51:38.894Z,8.50
2022-11-29T15:56:47.647Z,8.54
2022-11-29T16:01:53.699Z,8.63
2022-11-29T16:06:57.948Z,8.68
2022-11-29T16:12:05.468Z,8.78
2022-11-29T16:17:09.313Z,8.76
2022-11-29T16:22:18.575Z,8.73
2022-11-29T16:27:23.972Z,8.69
2022-11-29T16:32:30.160Z,8.76
2022-11-29T16:37:41.144Z,8.76
2022-11-29T16:43:07.274Z,8.66
2022-11-29T16:48:38.132Z,8.52
2022-11-29T16:53:43.633Z,8.38
2022-11-29T16:59:25.064Z,8.34
2022-11-29T17:04:23.569Z,8.33
2022-11-29T17:09:29.144Z,8.37
2022-11-29T17:14:34.059Z,8.35
2022-11-29T17:19:37.180Z,8.29
2022-11-29T17:24:46.196Z,8.26
2022-11-29T17:29:52.299Z,8.19
2022-11-29T17:34:55.457Z,8.20
2022-11-29T17:39:58.766Z,8.13
2022-11-29T17:45:03.191Z,8.16
2022-11-29T17:50:07.424Z,8.09
2022-11-29T17:55:18.030Z,7.95
2022-11-29T18:00:29.235Z,7.97
2022-11-29T18:05:34.774Z,7.97
2022-11-29T18:10:37.976Z,7.93
2022-11-29T18:15:42.345Z,7.73
2022-11-29T18:20:45.335Z,7.75
2022-11-29T18:25:57.032Z,7.76
2022-11-29T18:31:08.731Z,7.74
2022-11-29T18:36:13.628Z,7.74
2022-11-29T18:41:18.485Z,7.70
2022-11-29T18:46:24.075Z,7.67
2022-11-29T18:51:27.355Z,7.65
2022-11-29T18:56:35.722Z,7.57
2022-11-29T19:01:43.042Z,7.54
2022-11-29T19:06:46.557Z,7.57
2022-11-29T19:11:52.634Z,7.54
2022-11-29T19:16:56.990Z,7.56
2022-11-29T19:21:59.958Z,7.60
2022-11-29T19:27:04.652Z,7.62
2022-11-29T19:32:09.651Z,7.61
2022-11-29T19:37:12.802Z,7.56
2022-11-29T19:42:16.016Z,7.56
2022-11-29T19:47:20.455Z,7.63
2022-11-29T19:52:23.565Z,7.63
2022-11-29T19:57:26.603Z,7.43
2022-11-29T20:02:31.205Z,7.40
2022-11-29T20:07:34.475Z,7.49
2022-11-29T20:12:37.646Z,7.50
2022-11-29T20:17:42.007Z,7.43
2022-11-29T20:22:45.102Z,7.29
2022-11-29T20:27:48.325Z,7.25
2022-11-29T20:32:53.169Z,7.23
2022-11-29T20:38:11.829Z,7.15
2022-11-29T20:43:21.197Z,7.09
2022-11-29T20:48:27.803Z,7.07
2022-11-29T20:53:34.469Z,6.99
2022-11-29T20:58:37.638Z,7.09
2022-11-29T21:03:42.253Z,7.12
2022-11-29T21:08:45.340Z,7.08
2022-11-29T21:13:48.962Z,7.13
2022-11-29T21:18:55.700Z,7.10
2022-11-29T21:24:06.780Z,7.12
2022-11-29T21:29:16.691Z,7.16
2022-11-29T21:34:21.197Z,7.09
2022-11-29T21:39:27.848Z,7.10
2022-11-29T21:44:33.623Z,7.06
2022-11-29T21:49:38.027Z,7.11
2022-11-29T21:54:44.287Z,7.17
2022-11-29T21:59:47.452Z,7.06
2022-11-29T22:04:51.841Z,7.06
2022-11-29T22:09:55.014Z,6.98
2022-11-29T22:14:57.944Z,7.09
2022-11-29T22:20:05.868Z,7.08
2022-11-29T22:25:09.801Z,7.06
2022-11-29T22:30:13.644Z,7.09
2022-11-29T22:35:18.208Z,7.16
2022-11-29T22:40:21.176Z,7.18
2022-11-29T22:45:24.206Z,7.24
2022-11-29T22:50:28.786Z,7.19
2022-11-29T22:55:31.792Z,7.14
2022-11-29T23:00:36.075Z,7.15
2022-11-29T23:05:40.810Z,7.13
2022-11-29T23:10:43.971Z,7.21
2022-11-29T23:15:47.155Z,7.24
2022-11-29T23:20:51.514Z,7.33
2022-11-29T23:25:54.527Z,7.35
2022-11-29T23:31:02.144Z,7.40
2022-11-29T23:36:08.992Z,7.49
2022-11-29T23:41:12.654Z,7.53
2022-11-29T23:46:17.197Z,7.54
2022-11-29T23:51:21.615Z,7.56
2022-11-29T23:56:24.786Z,7.52
